createdAt,value
2022-09-23T00:01:05.459Z,11.47
2022-09-23T00:03:33.156Z,11.45
2022-09-23T00:06:01.831Z,11.42
2022-09-23T00:08:29.491Z,11.38
2022-09-23T00:10:56.592Z,11.37
2022-09-23T00:13:24.599Z,11.37
2022-09-23T00:15:51.856Z,11.35
2022-09-23T00:18:21.105Z,11.32
2022-09-23T00:20:48.146Z,11.32
2022-09-23T00:23:14.785Z,11.34
2022-09-23T00:25:41.273Z,11.37
2022-09-23T00:28:07.811Z,11.37
2022-09-23T00:30:34.573Z,11.37
2022-09-23T00:33:02.172Z,11.38
2022-09-23T00:35:28.782Z,11.33
2022-09-23T00:37:56.194Z,11.32
2022-09-23T00:40:22.663Z,11.31
2022-09-23T00:42:51.215Z,11.25
2022-09-23T00:45:18.719Z,11.24
2022-09-23T00:47:53.361Z,11.22
2022-09-23T00:50:36.431Z,11.19
2022-09-23T00:53:10.645Z,11.16
2022-09-23T00:55:43.896Z,11.14
2022-09-23T00:58:14.879Z,11.15
2022-09-23T01:00:42.864Z,11.16
2022-09-23T01:03:10.215Z,11.13
2022-09-23T01:05:36.842Z,11.14
2022-09-23T01:08:05.055Z,11.12
2022-09-23T01:11:09.455Z,11.12
2022-09-23T01:13:52.910Z,11.12
2022-09-23T01:16:34.069Z,11.10
2022-09-23T01:19:19.536Z,11.07
2022-09-23T01:22:23.735Z,11.02
2022-09-23T01:25:21.241Z,10.95
2022-09-23T01:28:12.672Z,10.85
2022-09-23T01:31:05.124Z,10.83
2022-09-23T01:33:53.170Z,10.76
2022-09-23T01:36:37.149Z,10.73
2022-09-23T01:39:30.734Z,10.70
2022-09-23T01:42:00.143Z,10.69
2022-09-23T01:44:48.727Z,10.68
2022-09-23T01:47:23.184Z,10.68
2022-09-23T01:50:30.011Z,10.67
2022-09-23T01:53:02.425Z,10.64
2022-09-23T01:55:34.136Z,10.62
2022-09-23T01:58:15.781Z,10.59
2022-09-23T02:00:56.837Z,10.60
2022-09-23T02:03:35.407Z,10.59
2022-09-23T02:06:07.924Z,10.60
2022-09-23T02:08:56.632Z,10.59
2022-09-23T02:11:23.579Z,10.55
2022-09-23T02:14:07.093Z,10.50
2022-09-23T02:16:47.570Z,10.47
2022-09-23T02:19:40.375Z,10.46
2022-09-23T02:22:23.192Z,10.46
2022-09-23T02:24:49.734Z,10.47
2022-09-23T02:27:30.345Z,10.48
2022-09-23T02:30:18.988Z,10.49
2022-09-23T02:33:07.866Z,10.47
2022-09-23T02:35:37.294Z,10.47
2022-09-23T02:38:38.974Z,10.46
2022-09-23T02:41:11.629Z,10.44
2022-09-23T02:43:59.667Z,10.41
2022-09-23T02:46:29.992Z,10.40
2022-09-23T02:49:14.068Z,10.37
2022-09-23T02:51:41.451Z,10.36
2022-09-23T02:54:14.578Z,10.37
2022-09-23T02:56:41.928Z,10.36
2022-09-23T02:59:09.616Z,10.34
2022-09-23T03:01:56.681Z,10.32
2022-09-23T03:04:35.233Z,10.29
2022-09-23T03:07:07.562Z,10.28
2022-09-23T03:09:48.361Z,10.25
2022-09-23T03:12:37.748Z,10.19
2022-09-23T03:15:26.489Z,10.13
2022-09-23T03:18:08.221Z,10.09
2022-09-23T03:20:49.503Z,10.08
2022-09-23T03:23:19.912Z,10.06
2022-09-23T03:25:49.740Z,10.06
2022-09-23T03:28:20.267Z,10.05
2022-09-23T03:30:47.864Z,10.05
2022-09-23T03:33:16.756Z,10.05
2022-09-23T03:36:10.856Z,10.04
2022-09-23T03:38:43.516Z,10.03
2022-09-23T03:41:16.925Z,10.03
2022-09-23T03:43:45.589Z,10.03
2022-09-23T03:46:12.965Z,10.03
2022-09-23T03:48:40.730Z,10.01
2022-09-23T03:51:21.982Z,10.00
2022-09-23T03:53:48.429Z,10.00
2022-09-23T03:56:15.231Z,10.00
2022-09-23T03:58:41.760Z,9.98
2022-09-23T04:01:08.489Z,10.00
2022-09-23T04:03:35.059Z,10.01
2022-09-23T04:06:01.557Z,10.02
2022-09-23T04:08:27.999Z,10.02
2022-09-23T04:10:59.576Z,10.02
2022-09-23T04:13:26.139Z,10.01
2022-09-23T04:15:52.776Z,10.00
2022-09-23T04:18:19.443Z,10.00
2022-09-23T04:20:46.323Z,9.98
2022-09-23T04:23:13.010Z,9.98
2022-09-23T04:25:47.794Z,9.98
2022-09-23T04:28:15.406Z,9.98
2022-09-23T04:30:43.745Z,9.99
2022-09-23T04:33:13.867Z,9.99
2022-09-23T04:35:42.894Z,9.99
2022-09-23T04:38:12.807Z,9.99
2022-09-23T04:40:40.263Z,9.98
2022-09-23T04:43:10.556Z,10.00
2022-09-23T04:45:39.518Z,9.99
2022-09-23T04:48:05.977Z,10.01
2022-09-23T04:50:33.924Z,10.01
2022-09-23T04:53:00.512Z,10.02
2022-09-23T04:55:27.291Z,10.01
2022-09-23T04:57:53.916Z,10.02
2022-09-23T05:00:20.820Z,10.03
2022-09-23T05:02:49.319Z,10.04
2022-09-23T05:05:20.221Z,10.04
2022-09-23T05:07:51.165Z,10.06
2022-09-23T05:10:17.849Z,10.07
2022-09-23T05:12:44.477Z,10.08
2022-09-23T05:17:37.628Z,10.09
2022-09-23T05:20:04.965Z,10.09
2022-09-23T05:22:31.482Z,10.08
2022-09-23T05:24:59.861Z,10.08
2022-09-23T05:27:26.474Z,10.09
2022-09-23T05:29:53.096Z,10.10
2022-09-23T05:32:20.087Z,10.09
2022-09-23T05:34:46.827Z,10.10
2022-09-23T05:37:13.561Z,10.11
2022-09-23T05:39:40.047Z,10.13
2022-09-23T05:42:06.896Z,10.14
2022-09-23T05:44:33.380Z,10.13
2022-09-23T05:47:00.030Z,10.13
2022-09-23T05:49:48.197Z,10.13
2022-09-23T05:52:13.244Z,10.13
2022-09-23T05:54:40.423Z,10.16
2022-09-23T05:57:06.974Z,10.18
2022-09-23T05:59:33.693Z,10.19
2022-09-23T06:02:00.756Z,10.19
2022-09-23T06:04:27.630Z,10.21
2022-09-23T06:06:54.087Z,10.21
2022-09-23T06:09:20.567Z,10.23
2022-09-23T06:11:47.381Z,10.24
2022-09-23T06:14:14.790Z,10.24
2022-09-23T06:16:41.412Z,10.26
2022-09-23T06:19:08.069Z,10.29
2022-09-23T06:21:37.237Z,10.30
2022-09-23T06:24:04.932Z,10.32
2022-09-23T06:26:34.673Z,10.35
2022-09-23T06:29:02.803Z,10.37
2022-09-23T06:31:30.194Z,10.39
2022-09-23T06:34:07.907Z,10.41
2022-09-23T06:36:43.473Z,10.42
2022-09-23T06:39:11.551Z,10.45
2022-09-23T06:41:38.387Z,10.47
2022-09-23T06:44:05.155Z,10.49
2022-09-23T06:46:31.880Z,10.51
2022-09-23T06:48:58.565Z,10.52
2022-09-23T06:51:25.458Z,10.55
2022-09-23T06:53:52.550Z,10.57
2022-09-23T06:56:21.030Z,10.61
2022-09-23T06:58:47.752Z,10.66
2022-09-23T07:01:16.274Z,10.70
2022-09-23T07:03:44.385Z,10.74
2022-09-23T07:06:11.473Z,10.78
2022-09-23T07:08:38.084Z,10.85
2022-09-23T07:11:06.672Z,10.90
2022-09-23T07:13:33.753Z,10.96
2022-09-23T07:16:02.201Z,10.99
2022-09-23T07:18:36.215Z,11.07
2022-09-23T07:21:09.023Z,11.13
2022-09-23T07:23:37.749Z,11.18
2022-09-23T07:26:05.141Z,11.24
2022-09-23T07:28:32.202Z,11.29
2022-09-23T07:31:07.954Z,11.36
2022-09-23T07:33:37.034Z,11.41
2022-09-23T07:36:08.228Z,11.47
2022-09-23T07:38:35.289Z,11.54
2022-09-23T07:41:10.990Z,11.60
2022-09-23T07:43:40.823Z,11.66
2022-09-23T07:46:11.418Z,11.70
2022-09-23T07:48:41.585Z,11.75
2022-09-23T07:51:12.141Z,11.81
2022-09-23T07:53:39.260Z,11.87
2022-09-23T07:56:06.656Z,11.94
2022-09-23T07:58:35.032Z,12.01
2022-09-23T08:01:06.751Z,12.08
2022-09-23T08:03:33.409Z,12.15
2022-09-23T08:06:12.017Z,12.23
2022-09-23T08:08:40.735Z,12.30
2022-09-23T08:11:10.008Z,12.38
2022-09-23T08:13:37.340Z,12.45
2022-09-23T08:16:04.693Z,12.53
2022-09-23T08:18:31.261Z,12.62
2022-09-23T08:21:03.769Z,12.70
2022-09-23T08:23:33.581Z,12.76
2022-09-23T08:26:02.856Z,12.86
2022-09-23T08:28:30.009Z,12.94
2022-09-23T08:30:56.562Z,13.03
2022-09-23T08:33:24.294Z,13.09
2022-09-23T08:35:51.542Z,13.17
2022-09-23T08:38:19.306Z,13.25
2022-09-23T08:40:49.470Z,13.33
2022-09-23T08:43:33.984Z,13.41
2022-09-23T08:46:04.611Z,13.47
2022-09-23T08:48:36.988Z,13.54
2022-09-23T08:51:12.709Z,13.63
2022-09-23T08:53:39.936Z,13.72
2022-09-23T08:56:15.406Z,13.80
2022-09-23T08:59:00.157Z,13.88
2022-09-23T09:01:45.930Z,13.97
2022-09-23T09:04:24.188Z,14.04
2022-09-23T09:07:12.312Z,14.09
2022-09-23T09:09:57.282Z,14.16
2022-09-23T09:12:36.076Z,14.25
2022-09-23T09:15:07.412Z,14.29
2022-09-23T09:17:51.737Z,14.35
2022-09-23T09:20:35.170Z,14.40
2022-09-23T09:23:20.125Z,14.46
2022-09-23T09:25:50.955Z,14.49
2022-09-23T09:28:42.415Z,14.54
2022-09-23T09:31:12.203Z,14.56
2022-09-23T09:33:47.291Z,14.60
2022-09-23T09:36:40.452Z,14.65
2022-09-23T09:39:12.331Z,14.68
2022-09-23T09:41:41.867Z,14.73
2022-09-23T09:44:23.473Z,14.78
2022-09-23T09:47:07.804Z,14.82
2022-09-23T09:50:00.749Z,14.86
2022-09-23T09:52:29.748Z,14.90
2022-09-23T09:55:17.708Z,14.97
2022-09-23T09:57:49.279Z,15.01
2022-09-23T10:00:21.845Z,15.09
2022-09-23T10:03:01.540Z,15.18
2022-09-23T10:05:46.833Z,15.24
2022-09-23T10:08:22.304Z,15.29
2022-09-23T10:10:55.550Z,15.34
2022-09-23T10:13:24.503Z,15.42
2022-09-23T10:15:54.813Z,15.49
2022-09-23T10:18:31.832Z,15.59
2022-09-23T10:21:14.983Z,15.69
2022-09-23T10:23:44.040Z,15.71
2022-09-23T10:26:12.324Z,15.77
2022-09-23T10:28:52.259Z,15.83
2022-09-23T10:31:30.801Z,15.88
2022-09-23T10:34:02.605Z,15.95
2022-09-23T10:36:31.505Z,16.01
2022-09-23T10:39:21.102Z,16.12
2022-09-23T10:42:22.349Z,16.18
2022-09-23T10:45:19.727Z,16.24
2022-09-23T10:48:08.852Z,16.30
2022-09-23T10:50:48.619Z,16.33
2022-09-23T10:53:19.487Z,16.32
2022-09-23T10:56:10.957Z,16.40
2022-09-23T10:59:03.123Z,16.41
2022-09-23T11:01:39.585Z,16.46
2022-09-23T11:04:35.827Z,16.51
2022-09-23T11:07:18.300Z,16.51
2022-09-23T11:09:47.621Z,16.54
2022-09-23T11:12:28.117Z,16.60
2022-09-23T11:15:03.724Z,16.64
2022-09-23T11:17:45.074Z,16.68
2022-09-23T11:20:36.050Z,16.73
2022-09-23T11:23:30.046Z,16.75
2022-09-23T11:26:12.759Z,16.77
2022-09-23T11:29:04.321Z,16.82
2022-09-23T11:31:32.564Z,16.83
2022-09-23T11:34:20.560Z,16.84
2022-09-23T11:36:54.391Z,16.88
2022-09-23T11:39:26.662Z,16.89
2022-09-23T11:41:56.876Z,16.93
2022-09-23T11:44:37.544Z,16.96
2022-09-23T11:47:09.149Z,17.03
2022-09-23T11:49:41.180Z,17.07
2022-09-23T11:52:21.129Z,17.12
2022-09-23T11:55:22.055Z,17.17
2022-09-23T11:57:53.111Z,17.23
2022-09-23T12:00:34.211Z,17.26
2022-09-23T12:03:19.314Z,17.28
2022-09-23T12:05:59.843Z,17.35
2022-09-23T12:08:31.014Z,17.38
2022-09-23T12:11:06.706Z,17.45
2022-09-23T12:14:07.553Z,17.49
2022-09-23T12:16:42.763Z,17.54
2022-09-23T12:19:47.423Z,17.56
2022-09-23T12:22:40.844Z,17.60
2022-09-23T12:25:37.226Z,17.63
2022-09-23T12:28:12.329Z,17.65
2022-09-23T12:30:41.126Z,17.67
2022-09-23T12:33:24.588Z,17.71
2022-09-23T12:35:54.021Z,17.77
2022-09-23T12:38:35.227Z,17.77
2022-09-23T12:41:09.112Z,17.79
2022-09-23T12:43:35.962Z,17.79
2022-09-23T12:46:29.731Z,17.82
2022-09-23T12:48:57.978Z,17.85
2022-09-23T12:51:26.535Z,17.88
2022-09-23T12:54:05.285Z,17.91
2022-09-23T12:56:34.547Z,17.89
2022-09-23T12:59:17.294Z,17.92
2022-09-23T13:01:44.681Z,17.92
2022-09-23T13:04:52.051Z,17.95
2022-09-23T13:07:25.813Z,17.99
2022-09-23T13:09:58.282Z,17.98
2022-09-23T13:12:31.156Z,17.99
2022-09-23T13:15:03.476Z,18.02
2022-09-23T13:17:37.061Z,18.02
2022-09-23T13:20:22.295Z,18.05
2022-09-23T13:22:48.768Z,18.07
2022-09-23T13:25:27.007Z,18.08
2022-09-23T13:28:00.703Z,18.12
2022-09-23T13:30:27.866Z,18.12
2022-09-23T13:33:10.929Z,18.13
2022-09-23T13:35:41.868Z,18.14
2022-09-23T13:38:18.649Z,18.14
2022-09-23T13:40:45.393Z,18.14
2022-09-23T13:43:23.641Z,18.15
2022-09-23T13:45:50.447Z,18.14
2022-09-23T13:48:18.502Z,18.14
2022-09-23T13:50:50.878Z,18.14
2022-09-23T13:53:25.402Z,18.15
2022-09-23T13:56:12.067Z,18.16
2022-09-23T13:58:39.301Z,18.20
2022-09-23T14:01:34.822Z,18.28
2022-09-23T14:04:05.923Z,18.28
2022-09-23T14:06:41.217Z,18.31
2022-09-23T14:09:09.408Z,18.37
2022-09-23T14:11:36.017Z,18.38
2022-09-23T14:14:07.667Z,18.41
2022-09-23T14:16:41.265Z,18.46
2022-09-23T14:19:17.051Z,18.49
2022-09-23T14:21:43.778Z,18.53
2022-09-23T14:24:10.286Z,18.54
2022-09-23T14:26:38.482Z,18.55
2022-09-23T14:29:06.712Z,18.56
2022-09-23T14:31:33.590Z,18.56
2022-09-23T14:34:00.415Z,18.56
2022-09-23T14:36:45.929Z,18.54
2022-09-23T14:39:12.703Z,18.55
2022-09-23T14:41:46.685Z,18.53
2022-09-23T14:44:22.943Z,18.51
2022-09-23T14:46:57.905Z,18.51
2022-09-23T14:49:25.258Z,18.49
2022-09-23T14:51:59.766Z,18.46
2022-09-23T14:54:37.481Z,18.44
2022-09-23T14:57:24.055Z,18.42
2022-09-23T15:00:01.017Z,18.41
2022-09-23T15:02:38.068Z,18.39
2022-09-23T15:05:15.626Z,18.36
2022-09-23T15:07:44.347Z,18.31
2022-09-23T15:10:19.978Z,18.29
2022-09-23T15:12:51.831Z,18.28
2022-09-23T15:15:24.034Z,18.23
2022-09-23T15:17:50.802Z,18.18
2022-09-23T15:20:25.665Z,18.15
2022-09-23T15:22:55.174Z,18.10
2022-09-23T15:25:39.619Z,18.07
2022-09-23T15:28:12.308Z,18.03
2022-09-23T15:30:39.409Z,17.99
2022-09-23T15:33:06.879Z,17.96
2022-09-23T15:35:33.549Z,17.93
2022-09-23T15:38:02.305Z,17.91
2022-09-23T15:40:34.310Z,17.87
2022-09-23T15:43:07.524Z,17.85
2022-09-23T15:45:40.857Z,17.82
2022-09-23T15:48:13.726Z,17.79
2022-09-23T15:50:41.389Z,17.77
2022-09-23T15:53:10.229Z,17.76
2022-09-23T15:55:36.792Z,17.72
2022-09-23T15:58:03.768Z,17.70
2022-09-23T16:00:30.786Z,17.68
2022-09-23T16:02:57.289Z,17.66
2022-09-23T16:05:36.252Z,17.64
2022-09-23T16:08:09.027Z,17.60
2022-09-23T16:10:37.266Z,17.57
2022-09-23T16:13:07.117Z,17.55
2022-09-23T16:15:33.879Z,17.52
2022-09-23T16:18:00.910Z,17.49
2022-09-23T16:20:29.747Z,17.45
2022-09-23T16:23:02.214Z,17.41
2022-09-23T16:25:31.162Z,17.36
2022-09-23T16:27:58.602Z,17.32
2022-09-23T16:30:30.911Z,17.28
2022-09-23T16:33:02.351Z,17.25
2022-09-23T16:35:33.702Z,17.19
2022-09-23T16:38:00.483Z,17.15
2022-09-23T16:40:27.339Z,17.11
2022-09-23T16:42:56.254Z,17.09
2022-09-23T16:45:23.293Z,17.02
2022-09-23T16:47:52.116Z,16.99
2022-09-23T16:50:22.772Z,16.95
2022-09-23T16:52:52.146Z,16.92
2022-09-23T16:55:18.834Z,16.88
2022-09-23T16:57:45.413Z,16.84
2022-09-23T17:00:34.088Z,16.79
2022-09-23T17:03:20.251Z,16.74
2022-09-23T17:05:47.308Z,16.69
2022-09-23T17:08:15.348Z,16.66
2022-09-23T17:10:44.087Z,16.61
2022-09-23T17:13:12.259Z,16.57
2022-09-23T17:15:40.267Z,16.52
2022-09-23T17:18:07.930Z,16.48
2022-09-23T17:20:35.311Z,16.45
2022-09-23T17:23:05.246Z,16.40
2022-09-23T17:25:34.352Z,16.36
2022-09-23T17:28:01.372Z,16.33
2022-09-23T17:30:29.017Z,16.29
2022-09-23T17:32:55.493Z,16.26
2022-09-23T17:35:21.995Z,16.23
2022-09-23T17:37:48.704Z,16.20
2022-09-23T17:40:15.363Z,16.18
2022-09-23T17:42:42.211Z,16.14
2022-09-23T17:45:12.401Z,16.11
2022-09-23T17:47:41.882Z,16.09
2022-09-23T17:50:08.915Z,16.06
2022-09-23T17:52:35.484Z,16.03
2022-09-23T17:55:02.328Z,16.03
2022-09-23T17:57:28.912Z,16.03
2022-09-23T17:59:56.059Z,16.00
2022-09-23T18:02:22.791Z,15.98
2022-09-23T18:04:49.874Z,15.94
2022-09-23T18:07:16.657Z,15.88
2022-09-23T18:09:43.532Z,15.86
2022-09-23T18:12:10.205Z,15.84
2022-09-23T18:14:36.653Z,15.82
2022-09-23T18:17:03.141Z,15.80
2022-09-23T18:19:29.623Z,15.79
2022-09-23T18:21:57.167Z,15.79
2022-09-23T18:24:33.358Z,15.76
2022-09-23T18:27:00.862Z,15.72
2022-09-23T18:29:27.491Z,15.70
2022-09-23T18:31:54.115Z,15.68
2022-09-23T18:34:21.059Z,15.67
2022-09-23T18:36:47.548Z,15.66
2022-09-23T18:39:14.106Z,15.63
2022-09-23T18:41:41.209Z,15.61
2022-09-23T18:44:08.394Z,15.58
2022-09-23T18:46:35.550Z,15.56
2022-09-23T18:49:20.623Z,15.55
2022-09-23T18:51:54.268Z,15.52
2022-09-23T18:54:21.981Z,15.51
2022-09-23T18:56:49.417Z,15.50
2022-09-23T18:59:19.564Z,15.50
2022-09-23T19:01:48.291Z,15.50
2022-09-23T19:04:17.520Z,15.52
2022-09-23T19:06:44.265Z,15.49
2022-09-23T19:09:12.062Z,15.47
2022-09-23T19:11:39.140Z,15.45
2022-09-23T19:14:09.165Z,15.42
2022-09-23T19:16:37.845Z,15.40
2022-09-23T19:19:05.758Z,15.38
2022-09-23T19:21:33.541Z,15.37
2022-09-23T19:24:03.573Z,15.37
2022-09-23T19:26:33.964Z,15.34
2022-09-23T19:29:02.339Z,15.32
2022-09-23T19:31:36.126Z,15.29
2022-09-23T19:34:10.177Z,15.29
2022-09-23T19:36:38.813Z,15.29
2022-09-23T19:39:08.607Z,15.28
2022-09-23T19:41:36.407Z,15.28
2022-09-23T19:44:03.801Z,15.27
2022-09-23T19:46:33.898Z,15.28
2022-09-23T19:49:00.699Z,15.28
2022-09-23T19:51:28.223Z,15.27
2022-09-23T19:53:54.836Z,15.28
2022-09-23T19:56:21.517Z,15.27
2022-09-23T19:58:52.241Z,15.26
2022-09-23T20:01:19.256Z,15.24
2022-09-23T20:03:47.182Z,15.24
2022-09-23T20:06:14.849Z,15.23
2022-09-23T20:08:41.633Z,15.21
2022-09-23T20:11:15.377Z,15.20
2022-09-23T20:13:44.249Z,15.20
2022-09-23T20:16:13.644Z,15.20
2022-09-23T20:18:41.429Z,15.18
2022-09-23T20:21:10.892Z,15.18
2022-09-23T20:23:37.702Z,15.17
2022-09-23T20:26:24.736Z,15.18
2022-09-23T20:28:52.006Z,15.18
2022-09-23T20:31:21.052Z,15.19
2022-09-23T20:33:57.948Z,15.17
2022-09-23T20:36:29.772Z,15.16
2022-09-23T20:39:00.238Z,15.14
2022-09-23T20:41:27.975Z,15.13
2022-09-23T20:43:55.941Z,15.11
2022-09-23T20:46:25.942Z,15.12
2022-09-23T20:48:54.091Z,15.12
2022-09-23T20:51:20.820Z,15.12
2022-09-23T20:53:52.775Z,15.11
2022-09-23T20:56:22.080Z,15.10
2022-09-23T20:58:50.571Z,15.08
2022-09-23T21:01:19.588Z,15.06
2022-09-23T21:03:48.803Z,15.05
2022-09-23T21:06:18.682Z,15.03
2022-09-23T21:08:45.927Z,15.03
2022-09-23T21:11:15.194Z,15.02
2022-09-23T21:13:47.543Z,15.02
2022-09-23T21:16:16.134Z,14.99
2022-09-23T21:18:43.528Z,14.98
2022-09-23T21:21:12.309Z,14.96
2022-09-23T21:23:40.438Z,14.96
2022-09-23T21:26:09.580Z,14.92
2022-09-23T21:28:38.567Z,14.89
2022-09-23T21:31:08.693Z,14.87
2022-09-23T21:33:38.318Z,14.88
2022-09-23T21:36:09.309Z,14.89
2022-09-23T21:38:36.616Z,14.88
2022-09-23T21:41:05.617Z,14.87
2022-09-23T21:43:34.231Z,14.87
2022-09-23T21:46:03.262Z,14.86
2022-09-23T21:48:35.612Z,14.85
2022-09-23T21:51:08.274Z,14.83
2022-09-23T21:53:39.180Z,14.81
2022-09-23T21:56:15.698Z,14.80
2022-09-23T21:58:44.851Z,14.78
2022-09-23T22:01:17.719Z,14.78
2022-09-23T22:03:48.833Z,14.78
2022-09-23T22:06:21.718Z,14.81
2022-09-23T22:08:50.588Z,14.80
2022-09-23T22:11:38.203Z,14.77
2022-09-23T22:14:07.480Z,14.76
2022-09-23T22:16:34.129Z,14.75
2022-09-23T22:19:01.781Z,14.73
2022-09-23T22:21:30.304Z,14.72
2022-09-23T22:24:03.574Z,14.74
2022-09-23T22:26:36.083Z,14.72
2022-09-23T22:29:22.095Z,14.71
2022-09-23T22:32:06.968Z,14.69
2022-09-23T22:34:50.623Z,14.67
2022-09-23T22:37:21.825Z,14.65
2022-09-23T22:39:48.720Z,14.64
2022-09-23T22:42:15.472Z,14.64
2022-09-23T22:44:42.386Z,14.62
2022-09-23T22:47:10.456Z,14.63
2022-09-23T22:49:37.434Z,14.62
2022-09-23T22:52:07.955Z,14.63
2022-09-23T22:54:35.550Z,14.61
2022-09-23T22:57:05.364Z,14.60
2022-09-23T22:59:32.168Z,14.61
2022-09-23T23:02:02.985Z,14.61
2022-09-23T23:04:30.173Z,14.60
2022-09-23T23:06:58.820Z,14.60
2022-09-23T23:09:25.753Z,14.59
2022-09-23T23:11:52.255Z,14.59
2022-09-23T23:14:19.150Z,14.59
2022-09-23T23:16:46.570Z,14.58
2022-09-23T23:19:19.185Z,14.56
2022-09-23T23:21:46.029Z,14.56
2022-09-23T23:24:18.446Z,14.55
2022-09-23T23:26:45.887Z,14.55
2022-09-23T23:29:14.534Z,14.54
2022-09-23T23:31:41.199Z,14.52
2022-09-23T23:34:11.895Z,14.48
2022-09-23T23:36:39.449Z,14.48
2022-09-23T23:39:06.339Z,14.48
2022-09-23T23:41:33.274Z,14.49
2022-09-23T23:44:01.371Z,14.48
2022-09-23T23:46:30.072Z,14.48
2022-09-23T23:48:57.668Z,14.48
2022-09-23T23:51:26.479Z,14.48
2022-09-23T23:53:54.143Z,14.48
2022-09-23T23:56:22.712Z,14.46
2022-09-23T23:58:54.897Z,14.45
